createdAt,value
2018-07-13T00:00:10.701Z,19.40
2018-07-13T00:02:39.282Z,19.40
2018-07-13T00:05:07.778Z,19.40
2018-07-13T00:07:36.217Z,19.30
2018-07-13T00:10:04.743Z,19.20
2018-07-13T00:12:33.161Z,19.20
2018-07-13T00:15:09.955Z,19.10
2018-07-13T00:17:38.430Z,19.00
2018-07-13T00:20:07.448Z,19.00
2018-07-13T00:22:35.889Z,19.00
2018-07-13T00:25:04.808Z,19.10
2018-07-13T00:27:33.357Z,19.00
2018-07-13T00:30:01.858Z,18.90
2018-07-13T00:32:30.377Z,18.90
2018-07-13T00:34:58.841Z,18.80
2018-07-13T00:37:27.304Z,18.80
2018-07-13T00:39:55.946Z,18.60
2018-07-13T00:42:24.416Z,18.50
2018-07-13T00:44:52.880Z,18.50
2018-07-13T00:47:21.329Z,18.50
2018-07-13T00:49:50.017Z,18.40
2018-07-13T00:52:19.138Z,18.40
2018-07-13T00:54:47.609Z,18.50
2018-07-13T00:57:16.082Z,18.50
2018-07-13T00:59:45.068Z,18.50
2018-07-13T01:02:13.629Z,18.40
2018-07-13T01:04:42.047Z,18.50
2018-07-13T01:07:10.491Z,18.40
2018-07-13T01:09:38.936Z,18.30
2018-07-13T01:12:07.416Z,18.30
2018-07-13T01:14:35.924Z,18.30
2018-07-13T01:17:04.452Z,18.20
2018-07-13T01:19:32.929Z,18.20
2018-07-13T01:22:01.407Z,18.20
2018-07-13T01:24:30.523Z,18.10
2018-07-13T01:26:58.940Z,18.00
2018-07-13T01:29:27.364Z,17.90
2018-07-13T01:31:55.808Z,17.80
2018-07-13T01:34:24.321Z,17.80
2018-07-13T01:36:52.760Z,17.70
2018-07-13T01:39:21.149Z,17.70
2018-07-13T01:41:49.591Z,17.70
2018-07-13T01:44:18.617Z,17.60
2018-07-13T01:46:47.049Z,17.50
2018-07-13T01:49:15.491Z,17.60
2018-07-13T01:51:43.915Z,17.60
2018-07-13T01:54:12.372Z,17.80
2018-07-13T01:56:40.830Z,17.80
2018-07-13T01:59:09.506Z,17.90
2018-07-13T02:01:37.920Z,17.80
2018-07-13T02:04:06.370Z,17.90
2018-07-13T02:06:34.835Z,17.90
2018-07-13T02:09:03.487Z,17.80
2018-07-13T02:11:31.928Z,17.90
2018-07-13T02:14:00.366Z,18.00
2018-07-13T02:16:28.801Z,18.00
2018-07-13T02:18:57.276Z,18.00
2018-07-13T02:21:25.746Z,18.00
2018-07-13T02:23:54.149Z,18.00
2018-07-13T02:26:22.620Z,17.90
2018-07-13T02:28:51.064Z,17.90
2018-07-13T02:31:19.621Z,17.70
2018-07-13T02:33:48.072Z,17.50
2018-07-13T02:36:17.130Z,17.40
2018-07-13T02:38:45.620Z,17.30
2018-07-13T02:41:14.040Z,17.30
2018-07-13T02:43:42.471Z,17.20
2018-07-13T02:46:11.021Z,17.20
2018-07-13T02:48:39.433Z,17.30
2018-07-13T02:51:08.567Z,17.30
2018-07-13T02:53:36.993Z,17.30
2018-07-13T02:56:05.693Z,17.30
2018-07-13T02:58:34.137Z,17.30
2018-07-13T03:01:02.557Z,17.30
2018-07-13T03:03:31.033Z,17.40
2018-07-13T03:05:59.672Z,17.40
2018-07-13T03:08:28.108Z,17.40
2018-07-13T03:10:56.873Z,17.40
2018-07-13T03:13:25.326Z,17.50
2018-07-13T03:15:53.820Z,17.40
2018-07-13T03:18:22.395Z,17.40
2018-07-13T03:20:50.816Z,17.40
2018-07-13T03:23:19.298Z,17.30
2018-07-13T03:25:47.728Z,17.30
2018-07-13T03:28:16.885Z,17.20
2018-07-13T03:30:45.319Z,17.10
2018-07-13T03:33:13.965Z,17.10
2018-07-13T03:35:42.416Z,17.10
2018-07-13T03:38:10.941Z,17.10
2018-07-13T03:40:39.384Z,17.10
2018-07-13T03:43:08.415Z,17.10
2018-07-13T03:45:36.955Z,17.10
2018-07-13T03:48:05.379Z,17.10
2018-07-13T03:50:33.864Z,17.00
2018-07-13T03:53:02.268Z,17.00
2018-07-13T03:55:30.729Z,16.90
2018-07-13T03:57:59.168Z,17.00
2018-07-13T04:00:27.657Z,17.10
2018-07-13T04:02:56.120Z,17.20
2018-07-13T04:05:24.556Z,17.30
2018-07-13T04:07:53.105Z,17.20
2018-07-13T04:10:21.589Z,17.20
2018-07-13T04:12:50.044Z,17.10
2018-07-13T04:15:18.471Z,17.10
2018-07-13T04:17:46.914Z,17.10
2018-07-13T04:20:15.381Z,17.10
2018-07-13T04:22:43.869Z,17.30
2018-07-13T04:25:12.386Z,17.30
2018-07-13T04:27:40.979Z,17.40
2018-07-13T04:30:09.554Z,17.50
2018-07-13T04:32:38.009Z,17.60
2018-07-13T04:35:06.564Z,17.60
2018-07-13T04:37:35.014Z,17.60
2018-07-13T04:40:03.564Z,17.70
2018-07-13T04:42:32.065Z,17.80
2018-07-13T04:45:01.484Z,17.90
2018-07-13T04:47:29.982Z,17.90
2018-07-13T04:49:58.530Z,18.00
2018-07-13T04:52:26.979Z,17.80
2018-07-13T04:54:55.473Z,17.80
2018-07-13T04:57:24.001Z,17.60
2018-07-13T04:59:52.503Z,17.40
2018-07-13T05:02:20.989Z,17.40
2018-07-13T05:04:49.491Z,17.50
2018-07-13T05:07:17.917Z,17.50
2018-07-13T05:09:46.430Z,17.40
2018-07-13T05:12:14.993Z,17.40
2018-07-13T05:14:43.484Z,17.20
2018-07-13T05:17:11.953Z,17.10
2018-07-13T05:19:41.308Z,17.00
2018-07-13T05:22:09.781Z,17.00
2018-07-13T05:24:38.277Z,17.00
2018-07-13T05:27:06.805Z,16.90
2018-07-13T05:29:35.428Z,17.00
2018-07-13T05:32:03.957Z,17.10
2018-07-13T05:34:32.445Z,17.20
2018-07-13T05:37:00.929Z,17.20
2018-07-13T05:39:30.197Z,17.20
2018-07-13T05:41:58.754Z,17.10
2018-07-13T05:44:27.216Z,17.00
2018-07-13T05:46:55.963Z,16.90
2018-07-13T05:49:24.532Z,17.00
2018-07-13T05:51:53.046Z,17.00
2018-07-13T05:54:21.547Z,17.00
2018-07-13T05:56:50.599Z,16.90
2018-07-13T05:59:19.840Z,16.80
2018-07-13T06:01:48.337Z,16.80
2018-07-13T06:04:16.848Z,16.90
2018-07-13T06:06:45.734Z,17.00
2018-07-13T06:09:14.284Z,16.90
2018-07-13T06:11:43.641Z,16.90
2018-07-13T06:14:12.519Z,16.80
2018-07-13T06:16:40.964Z,16.90
2018-07-13T06:19:09.452Z,17.00
2018-07-13T06:21:37.909Z,17.20
2018-07-13T06:24:07.043Z,17.20
2018-07-13T06:26:35.469Z,17.10
2018-07-13T06:29:04.041Z,17.10
2018-07-13T06:31:32.626Z,17.00
2018-07-13T06:34:01.325Z,17.00
2018-07-13T06:36:29.854Z,17.00
2018-07-13T06:38:58.349Z,16.90
2018-07-13T06:41:27.001Z,17.00
2018-07-13T06:43:55.564Z,17.10
2018-07-13T06:46:24.033Z,17.00
2018-07-13T06:48:52.526Z,17.10
2018-07-13T06:51:20.988Z,17.30
2018-07-13T06:53:49.597Z,17.40
2018-07-13T06:56:18.021Z,17.30
2018-07-13T06:58:57.845Z,17.30
2018-07-13T07:01:26.397Z,17.30
2018-07-13T07:04:32.896Z,17.40
2018-07-13T07:07:06.017Z,17.60
2018-07-13T07:09:34.641Z,17.70
2018-07-13T07:13:13.564Z,17.80
2018-07-13T07:15:42.017Z,18.00
2018-07-13T07:18:12.382Z,17.80
2018-07-13T07:20:40.862Z,17.70
2018-07-13T07:23:09.334Z,17.60
2018-07-13T07:25:38.201Z,17.50
2018-07-13T07:28:06.687Z,17.50
2018-07-13T07:30:35.417Z,17.60
2018-07-13T07:33:04.319Z,17.60
2018-07-13T07:35:32.797Z,17.60
2018-07-13T07:38:01.386Z,17.60
2018-07-13T07:40:30.117Z,17.60
2018-07-13T07:42:58.656Z,17.60
2018-07-13T07:45:27.199Z,17.60
2018-07-13T07:47:56.326Z,17.60
2018-07-13T07:50:24.779Z,17.40
2018-07-13T07:52:53.601Z,17.50
2018-07-13T07:55:22.058Z,17.60
2018-07-13T07:57:50.513Z,17.80
2018-07-13T08:00:18.914Z,17.90
2018-07-13T08:02:47.417Z,17.90
2018-07-13T08:05:16.577Z,17.90
2018-07-13T08:07:45.045Z,17.80
2018-07-13T08:10:13.552Z,17.90
2018-07-13T08:12:42.032Z,17.90
2018-07-13T08:15:10.533Z,17.80
2018-07-13T08:17:38.948Z,17.70
2018-07-13T08:20:07.441Z,17.70
2018-07-13T08:22:39.749Z,17.70
2018-07-13T08:25:09.745Z,17.70
2018-07-13T08:27:42.461Z,17.70
2018-07-13T08:30:17.903Z,17.70
2018-07-13T08:32:47.097Z,17.80
2018-07-13T08:35:16.186Z,17.90
2018-07-13T08:37:44.763Z,17.90
2018-07-13T08:40:13.217Z,18.00
2018-07-13T08:42:42.136Z,18.10
2018-07-13T08:45:10.686Z,18.10
2018-07-13T08:47:39.165Z,18.20
2018-07-13T08:50:07.652Z,18.20
2018-07-13T08:52:36.294Z,18.10
2018-07-13T08:55:11.617Z,18.10
2018-07-13T08:57:40.927Z,18.00
2018-07-13T09:00:10.584Z,18.00
2018-07-13T09:02:39.958Z,18.20
2018-07-13T09:07:37.131Z,18.40
2018-07-13T09:10:08.873Z,18.30
2018-07-13T09:12:37.532Z,18.40
2018-07-13T09:15:06.234Z,18.40
2018-07-13T09:17:34.755Z,18.50
2018-07-13T09:20:03.260Z,18.50
2018-07-13T09:22:31.823Z,18.40
2018-07-13T09:25:00.280Z,18.50
2018-07-13T09:27:28.844Z,18.50
2018-07-13T09:29:57.394Z,18.50
2018-07-13T09:32:25.809Z,18.60
2018-07-13T09:34:54.322Z,18.60
2018-07-13T09:37:22.931Z,18.50
2018-07-13T09:39:51.436Z,18.50
2018-07-13T09:42:19.996Z,18.50
2018-07-13T09:44:48.477Z,18.50
2018-07-13T09:47:17.745Z,18.60
2018-07-13T09:49:46.204Z,18.50
2018-07-13T09:52:14.826Z,18.60
2018-07-13T09:54:43.413Z,18.60
2018-07-13T09:57:11.999Z,18.80
2018-07-13T09:59:40.461Z,18.80
2018-07-13T10:02:09.720Z,18.80
2018-07-13T10:04:38.223Z,18.70
2018-07-13T10:07:07.158Z,18.70
2018-07-13T10:09:35.653Z,18.60
2018-07-13T10:12:04.805Z,18.70
2018-07-13T10:14:33.498Z,18.70
2018-07-13T10:17:02.837Z,18.80
2018-07-13T10:19:31.291Z,18.80
2018-07-13T10:21:59.966Z,18.80
2018-07-13T10:24:28.845Z,18.90
2018-07-13T10:26:57.413Z,19.00
2018-07-13T10:29:30.395Z,18.90
2018-07-13T10:31:58.941Z,18.90
2018-07-13T10:34:27.399Z,18.90
2018-07-13T10:37:02.742Z,18.90
2018-07-13T10:39:31.605Z,19.10
2018-07-13T10:42:00.147Z,19.10
2018-07-13T10:44:28.688Z,19.20
2018-07-13T10:46:57.792Z,19.30
2018-07-13T10:49:26.312Z,19.30
2018-07-13T10:51:54.777Z,19.40
2018-07-13T10:54:23.275Z,19.50
2018-07-13T10:56:51.744Z,19.70
2018-07-13T10:59:20.179Z,19.80
2018-07-13T11:01:48.657Z,19.80
2018-07-13T11:04:17.099Z,19.80
2018-07-13T11:06:46.299Z,19.80
2018-07-13T11:09:14.802Z,19.90
2018-07-13T11:11:43.350Z,19.90
2018-07-13T11:14:11.776Z,20.00
2018-07-13T11:16:40.786Z,20.00
2018-07-13T11:19:09.221Z,19.90
2018-07-13T11:21:37.695Z,19.80
2018-07-13T11:24:06.275Z,19.70
2018-07-13T11:26:34.705Z,19.80
2018-07-13T11:29:03.149Z,19.80
2018-07-13T11:31:31.722Z,19.90
2018-07-13T11:34:00.472Z,20.00
2018-07-13T11:36:29.764Z,20.00
2018-07-13T11:38:58.899Z,20.00
2018-07-13T11:41:27.466Z,19.90
2018-07-13T11:43:56.725Z,20.00
2018-07-13T11:46:25.131Z,20.20
2018-07-13T11:48:53.606Z,20.50
2018-07-13T11:51:22.037Z,20.70
2018-07-13T11:53:50.506Z,20.80
2018-07-13T11:56:19.001Z,21.00
2018-07-13T11:58:47.573Z,21.10
2018-07-13T12:01:15.993Z,21.10
2018-07-13T12:03:44.576Z,21.10
2018-07-13T12:06:13.127Z,21.10
2018-07-13T12:08:41.573Z,21.10
2018-07-13T12:11:10.017Z,21.20
2018-07-13T12:13:38.569Z,21.30
2018-07-13T12:16:07.578Z,21.30
2018-07-13T12:18:36.238Z,21.40
2018-07-13T12:21:04.724Z,21.50
2018-07-13T12:23:33.180Z,21.60
2018-07-13T12:26:01.647Z,21.60
2018-07-13T12:28:30.078Z,21.70
2018-07-13T12:30:58.581Z,21.70
2018-07-13T12:33:27.182Z,21.80
2018-07-13T12:35:59.693Z,22.00
2018-07-13T12:40:56.323Z,22.40
2018-07-13T12:43:24.782Z,22.70
2018-07-13T12:45:53.241Z,22.90
2018-07-13T12:48:21.691Z,23.00
2018-07-13T12:50:50.177Z,23.00
2018-07-13T12:53:18.612Z,23.10
2018-07-13T12:55:48.410Z,23.30
2018-07-13T12:58:17.235Z,23.50
2018-07-13T13:00:45.697Z,23.70
2018-07-13T13:03:14.212Z,23.90
2018-07-13T13:05:42.662Z,23.90
2018-07-13T13:08:11.134Z,23.90
2018-07-13T13:10:42.472Z,24.00
2018-07-13T13:13:10.888Z,23.80
2018-07-13T13:15:39.311Z,23.90
2018-07-13T13:18:07.737Z,23.80
2018-07-13T13:20:36.178Z,23.70
2018-07-13T13:23:04.637Z,23.70
2018-07-13T13:25:33.075Z,23.90
2018-07-13T13:28:01.716Z,24.10
2018-07-13T13:30:30.502Z,24.20
2018-07-13T13:32:59.092Z,24.40
2018-07-13T13:35:27.734Z,24.50
2018-07-13T13:37:56.279Z,24.60
2018-07-13T13:40:24.779Z,24.70
2018-07-13T13:42:53.297Z,24.70
2018-07-13T13:45:21.747Z,24.70
2018-07-13T13:47:50.188Z,24.80
2018-07-13T13:50:18.669Z,24.70
2018-07-13T13:52:47.764Z,24.80
2018-07-13T13:55:17.357Z,24.80
2018-07-13T13:57:45.867Z,24.90
2018-07-13T14:00:14.355Z,25.00
2018-07-13T14:02:42.851Z,25.00
2018-07-13T14:05:11.392Z,25.10
2018-07-13T14:07:39.789Z,25.20
2018-07-13T14:10:08.452Z,25.20
2018-07-13T14:12:37.025Z,25.40
2018-07-13T14:15:06.203Z,25.40
2018-07-13T14:17:35.129Z,25.40
2018-07-13T14:20:03.880Z,25.40
2018-07-13T14:22:32.337Z,25.30
2018-07-13T14:25:00.846Z,25.30
2018-07-13T14:27:29.875Z,25.30
2018-07-13T14:29:58.393Z,25.30
2018-07-13T14:32:26.909Z,25.20
2018-07-13T14:36:38.147Z,25.50
2018-07-13T14:39:08.298Z,25.60
2018-07-13T14:41:36.841Z,25.50
2018-07-13T14:44:05.409Z,25.50
2018-07-13T14:46:34.076Z,25.60
2018-07-13T14:49:02.663Z,26.00
2018-07-13T14:51:31.096Z,26.00
2018-07-13T14:53:59.866Z,25.80
2018-07-13T14:56:28.372Z,25.70
2018-07-13T14:58:57.416Z,25.70
2018-07-13T15:01:25.960Z,25.90
2018-07-13T15:03:54.943Z,26.00
2018-07-13T15:06:23.966Z,25.90
2018-07-13T15:08:52.330Z,25.70
2018-07-13T15:11:20.752Z,25.40
2018-07-13T15:13:49.210Z,25.30
2018-07-13T15:16:17.840Z,25.30
2018-07-13T15:18:46.321Z,25.20
2018-07-13T15:21:14.768Z,25.10
2018-07-13T15:23:43.190Z,25.10
2018-07-13T15:26:11.665Z,25.10
2018-07-13T15:28:40.172Z,25.20
2018-07-13T15:31:08.733Z,25.10
2018-07-13T15:33:37.209Z,24.90
2018-07-13T15:36:05.694Z,24.80
2018-07-13T15:38:34.157Z,24.60
2018-07-13T15:41:02.625Z,24.40
2018-07-13T15:43:31.622Z,24.20
2018-07-13T15:46:00.094Z,24.40
2018-07-13T15:48:28.524Z,24.50
2018-07-13T15:50:56.969Z,24.60
2018-07-13T15:53:25.418Z,24.80
2018-07-13T15:55:57.054Z,24.70
2018-07-13T15:58:25.943Z,24.80
2018-07-13T16:00:54.777Z,24.90
2018-07-13T16:03:23.280Z,25.00
2018-07-13T16:05:51.808Z,24.90
2018-07-13T16:08:20.537Z,25.00
2018-07-13T16:10:49.240Z,25.00
2018-07-13T16:13:17.628Z,24.90
2018-07-13T16:15:46.128Z,24.90
2018-07-13T16:18:14.544Z,24.90
2018-07-13T16:20:43.005Z,24.90
2018-07-13T16:23:11.480Z,25.00
2018-07-13T16:25:40.010Z,25.10
2018-07-13T16:28:08.529Z,25.10
2018-07-13T16:30:37.024Z,25.20
2018-07-13T16:33:05.985Z,25.20
2018-07-13T16:35:34.452Z,25.20
2018-07-13T16:38:03.023Z,25.10
2018-07-13T16:40:31.487Z,25.10
2018-07-13T16:42:59.967Z,25.00
2018-07-13T16:45:28.413Z,25.00
2018-07-13T16:47:56.915Z,25.00
2018-07-13T16:50:25.411Z,24.90
2018-07-13T16:52:54.485Z,24.90
2018-07-13T16:55:23.100Z,24.80
2018-07-13T16:57:51.693Z,24.80
2018-07-13T17:00:20.125Z,24.80
2018-07-13T17:02:48.588Z,24.80
2018-07-13T17:05:17.032Z,24.60
2018-07-13T17:07:45.470Z,24.60
2018-07-13T17:10:14.590Z,24.60
2018-07-13T17:12:43.070Z,24.50
2018-07-13T17:15:11.625Z,24.40
2018-07-13T17:17:40.072Z,24.30
2018-07-13T17:20:08.592Z,24.20
2018-07-13T17:22:37.177Z,24.20
2018-07-13T17:25:06.084Z,24.20
2018-07-13T17:27:34.505Z,24.20
2018-07-13T17:30:03.066Z,24.10
2018-07-13T17:32:31.599Z,24.10
2018-07-13T17:35:00.068Z,23.90
2018-07-13T17:37:28.559Z,23.80
2018-07-13T17:39:57.000Z,23.80
2018-07-13T17:42:25.612Z,23.90
2018-07-13T17:44:54.086Z,24.00
2018-07-13T17:47:22.601Z,24.00
2018-07-13T17:49:51.116Z,23.90
2018-07-13T17:52:20.200Z,23.90
2018-07-13T17:54:48.741Z,23.80
2018-07-13T17:57:17.228Z,23.70
2018-07-13T17:59:46.275Z,23.60
2018-07-13T18:02:14.688Z,23.50
2018-07-13T18:04:43.199Z,23.50
2018-07-13T18:07:11.638Z,23.50
2018-07-13T18:09:40.098Z,23.50
2018-07-13T18:12:08.666Z,23.50
2018-07-13T18:14:37.369Z,23.50
2018-07-13T18:17:05.960Z,23.40
2018-07-13T18:19:34.451Z,23.40
2018-07-13T18:22:02.971Z,23.40
2018-07-13T18:24:31.444Z,23.30
2018-07-13T18:27:00.503Z,23.10
2018-07-13T18:29:29.016Z,23.10
2018-07-13T18:31:57.514Z,23.10
2018-07-13T18:34:25.978Z,23.10
2018-07-13T18:39:22.780Z,23.10
2018-07-13T18:41:51.353Z,23.20
2018-07-13T18:44:19.800Z,23.10
2018-07-13T18:46:48.930Z,23.00
2018-07-13T18:49:17.414Z,22.90
2018-07-13T18:51:46.267Z,22.90
2018-07-13T18:54:15.402Z,22.70
2018-07-13T18:56:43.833Z,22.60
2018-07-13T18:59:12.357Z,22.60
2018-07-13T19:01:40.828Z,22.50
2018-07-13T19:04:09.393Z,22.50
2018-07-13T19:09:07.532Z,22.40
2018-07-13T19:11:36.399Z,22.50
2018-07-13T19:14:04.885Z,22.40
2018-07-13T19:16:33.465Z,22.30
2018-07-13T19:19:02.363Z,22.10
2018-07-13T19:21:31.247Z,22.00
2018-07-13T19:23:59.819Z,21.80
2018-07-13T19:26:28.504Z,21.70
2018-07-13T19:28:57.893Z,21.70
2018-07-13T19:31:26.427Z,21.70
2018-07-13T19:33:55.061Z,21.70
2018-07-13T19:36:23.532Z,21.60
2018-07-13T19:38:52.570Z,21.60
2018-07-13T19:41:21.729Z,21.70
2018-07-13T19:43:50.234Z,21.50
2018-07-13T19:46:18.935Z,21.50
2018-07-13T19:48:48.912Z,21.30
2018-07-13T19:51:17.595Z,21.30
2018-07-13T19:53:46.205Z,21.30
2018-07-13T19:56:14.754Z,21.20
2018-07-13T19:58:43.236Z,21.30
2018-07-13T20:01:13.136Z,21.30
2018-07-13T20:03:42.247Z,21.20
2018-07-13T20:06:10.851Z,21.00
2018-07-13T20:08:39.627Z,20.90
2018-07-13T20:11:09.103Z,20.80
2018-07-13T20:13:38.174Z,20.80
2018-07-13T20:16:07.375Z,20.90
2018-07-13T20:18:36.340Z,20.90
2018-07-13T20:21:04.833Z,20.90
2018-07-13T20:23:33.594Z,20.80
2018-07-13T20:26:02.124Z,20.80
2018-07-13T20:28:31.003Z,20.70
2018-07-13T20:31:00.586Z,20.60
2018-07-13T20:33:29.449Z,20.50
2018-07-13T20:35:58.521Z,20.50
2018-07-13T20:38:27.052Z,20.40
2018-07-13T20:40:55.488Z,20.30
2018-07-13T20:43:24.513Z,20.30
2018-07-13T20:45:53.085Z,20.20
2018-07-13T20:48:21.598Z,20.10
2018-07-13T20:50:50.779Z,20.10
2018-07-13T20:53:20.350Z,20.10
2018-07-13T20:55:48.964Z,20.00
2018-07-13T20:58:17.461Z,20.00
2018-07-13T21:00:46.185Z,19.90
2018-07-13T21:03:15.362Z,19.90
2018-07-13T21:05:43.857Z,19.80
2018-07-13T21:08:12.885Z,19.80
2018-07-13T21:10:45.225Z,19.70
2018-07-13T21:13:13.688Z,19.50
2018-07-13T21:15:42.108Z,19.50
2018-07-13T21:18:10.717Z,19.40
2018-07-13T21:20:39.370Z,19.40
2018-07-13T21:23:07.842Z,19.40
2018-07-13T21:25:36.340Z,19.30
2018-07-13T21:28:05.276Z,19.40
2018-07-13T21:30:33.797Z,19.40
2018-07-13T21:33:02.339Z,19.40
2018-07-13T21:35:30.914Z,19.20
2018-07-13T21:37:59.504Z,19.10
2018-07-13T21:40:27.948Z,19.00
2018-07-13T21:42:56.420Z,19.00
2018-07-13T21:45:24.970Z,19.00
2018-07-13T21:47:53.440Z,19.00
2018-07-13T21:50:21.895Z,19.00
2018-07-13T21:52:50.368Z,19.00
2018-07-13T21:55:18.836Z,18.90
2018-07-13T21:57:47.285Z,18.90
2018-07-13T22:00:15.877Z,18.70
2018-07-13T22:02:44.389Z,18.70
2018-07-13T22:05:12.874Z,18.60
2018-07-13T22:07:41.298Z,18.60
2018-07-13T22:10:09.809Z,18.50
2018-07-13T22:12:38.240Z,18.40
2018-07-13T22:15:06.918Z,18.40
2018-07-13T22:17:35.413Z,18.40
2018-07-13T22:20:04.024Z,18.40
2018-07-13T22:22:33.069Z,18.40
2018-07-13T22:25:01.536Z,18.30
2018-07-13T22:27:30.009Z,18.30
2018-07-13T22:29:58.497Z,18.30
2018-07-13T22:32:26.971Z,18.20
2018-07-13T22:34:55.429Z,18.20
2018-07-13T22:37:24.059Z,18.20
2018-07-13T22:39:52.548Z,18.20
2018-07-13T22:42:20.977Z,18.30
2018-07-13T22:44:49.405Z,18.20
2018-07-13T22:47:17.868Z,18.20
2018-07-13T22:49:46.366Z,18.10
2018-07-13T22:52:14.834Z,18.10
2018-07-13T22:54:43.349Z,18.10
2018-07-13T22:57:11.813Z,18.10
2018-07-13T22:59:40.304Z,18.00
2018-07-13T23:02:08.733Z,17.90
2018-07-13T23:04:37.203Z,17.80
2018-07-13T23:07:05.732Z,17.80
2018-07-13T23:09:34.185Z,17.70
2018-07-13T23:12:02.636Z,18.60
2018-07-13T23:14:31.670Z,17.50
2018-07-13T23:17:00.600Z,17.30
2018-07-13T23:19:29.057Z,17.20
2018-07-13T23:21:57.864Z,17.30
2018-07-13T23:24:26.270Z,17.30
2018-07-13T23:26:54.740Z,17.20
2018-07-13T23:29:23.342Z,17.20
2018-07-13T23:31:51.844Z,17.30
2018-07-13T23:34:20.389Z,17.40
2018-07-13T23:36:48.832Z,17.30
2018-07-13T23:39:17.360Z,17.30
2018-07-13T23:41:45.870Z,17.30
2018-07-13T23:44:14.330Z,17.40
2018-07-13T23:46:42.761Z,17.40
2018-07-13T23:49:11.313Z,17.30
2018-07-13T23:51:39.725Z,17.20
2018-07-13T23:54:08.301Z,17.10
2018-07-13T23:56:36.733Z,17.20
2018-07-13T23:59:05.208Z,17.20
